sensor_id;sensor_type;location;lat;lon;timestamp;temperature;humidity
39033;DHT22;24794;51.982;5.878;2022-07-21T00:00:13;22.40;98.30
39033;DHT22;24794;51.982;5.878;2022-07-21T00:01:14;22.40;98.30
39033;DHT22;24794;51.982;5.878;2022-07-21T00:02:14;22.40;98.30
39033;DHT22;24794;51.982;5.878;2022-07-21T00:03:15;22.40;98.30
39033;DHT22;24794;51.982;5.878;2022-07-21T00:04:16;22.40;98.30
39033;DHT22;24794;51.982;5.878;2022-07-21T00:05:17;22.40;98.30
39033;DHT22;24794;51.982;5.878;2022-07-21T00:06:17;22.40;98.30
39033;DHT22;24794;51.982;5.878;2022-07-21T00:07:18;22.40;98.30
39033;DHT22;24794;51.982;5.878;2022-07-21T00:08:19;22.40;98.30
39033;DHT22;24794;51.982;5.878;2022-07-21T00:09:19;22.40;98.20
39033;DHT22;24794;51.982;5.878;2022-07-21T00:10:24;22.30;98.10
39033;DHT22;24794;51.982;5.878;2022-07-21T00:11:25;22.30;98.10
39033;DHT22;24794;51.982;5.878;2022-07-21T00:12:25;22.20;98.20
39033;DHT22;24794;51.982;5.878;2022-07-21T00:13:26;22.20;98.30
39033;DHT22;24794;51.982;5.878;2022-07-21T00:14:26;22.20;98.40
39033;DHT22;24794;51.982;5.878;2022-07-21T00:15:27;22.10;98.50
39033;DHT22;24794;51.982;5.878;2022-07-21T00:16:28;22.10;98.50
39033;DHT22;24794;51.982;5.878;2022-07-21T00:17:29;22.10;98.60
39033;DHT22;24794;51.982;5.878;2022-07-21T00:18:29;22.00;98.70
39033;DHT22;24794;51.982;5.878;2022-07-21T00:19:30;22.00;98.80
39033;DHT22;24794;51.982;5.878;2022-07-21T00:20:30;22.00;98.80
39033;DHT22;24794;51.982;5.878;2022-07-21T00:21:31;22.00;98.90
39033;DHT22;24794;51.982;5.878;2022-07-21T00:22:32;22.00;98.90
39033;DHT22;24794;51.982;5.878;2022-07-21T00:23:32;22.00;98.90
39033;DHT22;24794;51.982;5.878;2022-07-21T00:24:33;22.00;99.00
39033;DHT22;24794;51.982;5.878;2022-07-21T00:25:34;22.00;99.00
39033;DHT22;24794;51.982;5.878;2022-07-21T00:26:34;22.00;99.00
39033;DHT22;24794;51.982;5.878;2022-07-21T00:27:35;22.00;99.00
39033;DHT22;24794;51.982;5.878;2022-07-21T00:28:36;22.00;99.00
39033;DHT22;24794;51.982;5.878;2022-07-21T00:29:36;22.00;99.00
39033;DHT22;24794;51.982;5.878;2022-07-21T00:30:37;22.00;99.10
39033;DHT22;24794;51.982;5.878;2022-07-21T00:31:37;22.00;99.10
39033;DHT22;24794;51.982;5.878;2022-07-21T00:32:38;22.00;99.10
39033;DHT22;24794;51.982;5.878;2022-07-21T00:33:39;22.00;99.10
39033;DHT22;24794;51.982;5.878;2022-07-21T00:34:40;22.00;99.10
39033;DHT22;24794;51.982;5.878;2022-07-21T00:35:41;22.00;99.10
39033;DHT22;24794;51.982;5.878;2022-07-21T00:36:41;22.00;99.20
39033;DHT22;24794;51.982;5.878;2022-07-21T00:37:43;22.10;99.20
39033;DHT22;24794;51.982;5.878;2022-07-21T00:38:43;22.00;99.20
39033;DHT22;24794;51.982;5.878;2022-07-21T00:39:44;22.10;99.20
39033;DHT22;24794;51.982;5.878;2022-07-21T00:40:45;22.10;99.30
39033;DHT22;24794;51.982;5.878;2022-07-21T00:41:45;22.10;99.30
39033;DHT22;24794;51.982;5.878;2022-07-21T00:42:46;22.10;99.30
39033;DHT22;24794;51.982;5.878;2022-07-21T00:43:46;22.10;99.20
39033;DHT22;24794;51.982;5.878;2022-07-21T00:44:47;22.10;99.30
39033;DHT22;24794;51.982;5.878;2022-07-21T00:45:48;22.10;99.30
39033;DHT22;24794;51.982;5.878;2022-07-21T00:46:49;22.10;99.30
39033;DHT22;24794;51.982;5.878;2022-07-21T00:47:49;22.10;99.40
39033;DHT22;24794;51.982;5.878;2022-07-21T00:48:50;22.10;99.50
39033;DHT22;24794;51.982;5.878;2022-07-21T00:49:51;22.10;99.50
39033;DHT22;24794;51.982;5.878;2022-07-21T00:50:52;22.10;99.60
39033;DHT22;24794;51.982;5.878;2022-07-21T00:51:52;22.10;99.60
39033;DHT22;24794;51.982;5.878;2022-07-21T00:52:53;22.10;99.70
39033;DHT22;24794;51.982;5.878;2022-07-21T00:53:53;22.10;99.70
39033;DHT22;24794;51.982;5.878;2022-07-21T00:54:54;22.10;99.70
39033;DHT22;24794;51.982;5.878;2022-07-21T00:55:55;22.10;99.80
39033;DHT22;24794;51.982;5.878;2022-07-21T00:56:55;22.10;99.80
39033;DHT22;24794;51.982;5.878;2022-07-21T00:57:56;22.20;99.90
39033;DHT22;24794;51.982;5.878;2022-07-21T00:58:57;22.20;99.90
39033;DHT22;24794;51.982;5.878;2022-07-21T00:59:58;22.20;99.90
39033;DHT22;24794;51.982;5.878;2022-07-21T01:00:58;22.20;99.90
39033;DHT22;24794;51.982;5.878;2022-07-21T01:01:59;22.20;99.90
39033;DHT22;24794;51.982;5.878;2022-07-21T01:03:00;22.30;99.90
39033;DHT22;24794;51.982;5.878;2022-07-21T01:04:01;22.30;99.90
39033;DHT22;24794;51.982;5.878;2022-07-21T01:05:02;22.30;99.90
39033;DHT22;24794;51.982;5.878;2022-07-21T01:06:03;22.30;99.90
39033;DHT22;24794;51.982;5.878;2022-07-21T01:07:05;22.40;99.90
39033;DHT22;24794;51.982;5.878;2022-07-21T01:08:06;22.40;99.90
39033;DHT22;24794;51.982;5.878;2022-07-21T01:09:07;22.40;99.90
39033;DHT22;24794;51.982;5.878;2022-07-21T01:10:09;22.40;99.90
39033;DHT22;24794;51.982;5.878;2022-07-21T01:11:10;22.30;99.70
39033;DHT22;24794;51.982;5.878;2022-07-21T01:12:11;22.30;99.60
39033;DHT22;24794;51.982;5.878;2022-07-21T01:13:12;22.20;99.50
39033;DHT22;24794;51.982;5.878;2022-07-21T01:14:13;22.20;99.50
39033;DHT22;24794;51.982;5.878;2022-07-21T01:15:15;22.10;99.50
39033;DHT22;24794;51.982;5.878;2022-07-21T01:16:17;22.10;99.60
39033;DHT22;24794;51.982;5.878;2022-07-21T01:17:17;22.10;99.60
39033;DHT22;24794;51.982;5.878;2022-07-21T01:18:18;22.00;99.70
39033;DHT22;24794;51.982;5.878;2022-07-21T01:19:19;22.00;99.70
39033;DHT22;24794;51.982;5.878;2022-07-21T01:20:22;21.90;99.80
39033;DHT22;24794;51.982;5.878;2022-07-21T01:22:35;21.80;99.90
39033;DHT22;24794;51.982;5.878;2022-07-21T01:23:36;21.80;99.90
39033;DHT22;24794;51.982;5.878;2022-07-21T01:24:37;21.80;99.90
39033;DHT22;24794;51.982;5.878;2022-07-21T01:25:37;21.70;99.90
39033;DHT22;24794;51.982;5.878;2022-07-21T01:26:43;21.70;99.90
39033;DHT22;24794;51.982;5.878;2022-07-21T01:27:44;21.70;99.90
39033;DHT22;24794;51.982;5.878;2022-07-21T01:28:45;21.70;99.90
39033;DHT22;24794;51.982;5.878;2022-07-21T01:29:46;21.70;99.90
39033;DHT22;24794;51.982;5.878;2022-07-21T01:30:46;21.60;99.90
39033;DHT22;24794;51.982;5.878;2022-07-21T01:31:48;21.60;99.90
39033;DHT22;24794;51.982;5.878;2022-07-21T01:32:49;21.60;99.90
39033;DHT22;24794;51.982;5.878;2022-07-21T01:33:50;21.60;99.90
39033;DHT22;24794;51.982;5.878;2022-07-21T01:34:51;21.70;99.90
39033;DHT22;24794;51.982;5.878;2022-07-21T01:35:52;21.60;99.90
39033;DHT22;24794;51.982;5.878;2022-07-21T01:36:52;21.60;99.90
39033;DHT22;24794;51.982;5.878;2022-07-21T01:37:54;21.60;99.90
39033;DHT22;24794;51.982;5.878;2022-07-21T01:38:55;21.50;99.90
39033;DHT22;24794;51.982;5.878;2022-07-21T01:40:15;21.50;99.90
39033;DHT22;24794;51.982;5.878;2022-07-21T01:41:35;21.50;99.90
39033;DHT22;24794;51.982;5.878;2022-07-21T01:42:36;21.50;99.90
39033;DHT22;24794;51.982;5.878;2022-07-21T01:43:36;21.40;99.90
39033;DHT22;24794;51.982;5.878;2022-07-21T01:44:37;21.50;99.90
39033;DHT22;24794;51.982;5.878;2022-07-21T01:45:38;21.40;99.90
39033;DHT22;24794;51.982;5.878;2022-07-21T01:46:41;21.40;99.90
39033;DHT22;24794;51.982;5.878;2022-07-21T01:47:44;21.40;99.90
39033;DHT22;24794;51.982;5.878;2022-07-21T01:48:45;21.50;99.90
39033;DHT22;24794;51.982;5.878;2022-07-21T01:49:46;21.50;99.90
39033;DHT22;24794;51.982;5.878;2022-07-21T01:50:46;21.50;99.90
39033;DHT22;24794;51.982;5.878;2022-07-21T01:51:47;21.50;99.90
39033;DHT22;24794;51.982;5.878;2022-07-21T01:52:48;21.60;99.90
39033;DHT22;24794;51.982;5.878;2022-07-21T01:53:49;21.60;99.90
39033;DHT22;24794;51.982;5.878;2022-07-21T01:54:50;21.60;99.90
39033;DHT22;24794;51.982;5.878;2022-07-21T01:55:51;21.70;99.90
39033;DHT22;24794;51.982;5.878;2022-07-21T01:56:51;21.70;99.90
39033;DHT22;24794;51.982;5.878;2022-07-21T01:57:52;21.70;99.90
39033;DHT22;24794;51.982;5.878;2022-07-21T01:58:54;21.80;99.90
39033;DHT22;24794;51.982;5.878;2022-07-21T01:59:55;21.80;99.90
39033;DHT22;24794;51.982;5.878;2022-07-21T02:00:56;21.80;99.90
39033;DHT22;24794;51.982;5.878;2022-07-21T02:01:57;21.90;99.90
39033;DHT22;24794;51.982;5.878;2022-07-21T02:02:57;21.90;99.90
39033;DHT22;24794;51.982;5.878;2022-07-21T02:04:00;21.90;99.90
39033;DHT22;24794;51.982;5.878;2022-07-21T02:05:01;21.90;99.90
39033;DHT22;24794;51.982;5.878;2022-07-21T02:06:05;21.90;99.90
39033;DHT22;24794;51.982;5.878;2022-07-21T02:07:07;21.90;99.90
39033;DHT22;24794;51.982;5.878;2022-07-21T02:08:08;22.00;99.90
39033;DHT22;24794;51.982;5.878;2022-07-21T02:09:08;22.00;99.90
39033;DHT22;24794;51.982;5.878;2022-07-21T02:10:09;22.00;99.90
39033;DHT22;24794;51.982;5.878;2022-07-21T02:11:10;22.00;99.90
39033;DHT22;24794;51.982;5.878;2022-07-21T02:12:11;22.00;99.90
39033;DHT22;24794;51.982;5.878;2022-07-21T02:13:12;22.00;99.90
39033;DHT22;24794;51.982;5.878;2022-07-21T02:14:12;21.90;99.90
39033;DHT22;24794;51.982;5.878;2022-07-21T02:15:13;21.90;99.90
39033;DHT22;24794;51.982;5.878;2022-07-21T02:16:14;21.90;99.90
39033;DHT22;24794;51.982;5.878;2022-07-21T02:17:15;21.90;99.90
39033;DHT22;24794;51.982;5.878;2022-07-21T02:18:15;21.80;99.90
39033;DHT22;24794;51.982;5.878;2022-07-21T02:19:16;21.80;99.90
39033;DHT22;24794;51.982;5.878;2022-07-21T02:20:16;21.70;99.90
39033;DHT22;24794;51.982;5.878;2022-07-21T02:21:17;21.60;99.90
39033;DHT22;24794;51.982;5.878;2022-07-21T02:22:18;21.60;99.90
39033;DHT22;24794;51.982;5.878;2022-07-21T02:23:18;21.60;99.90
39033;DHT22;24794;51.982;5.878;2022-07-21T02:24:19;21.50;99.90
39033;DHT22;24794;51.982;5.878;2022-07-21T02:25:19;21.50;99.90
39033;DHT22;24794;51.982;5.878;2022-07-21T02:26:20;21.50;99.90
39033;DHT22;24794;51.982;5.878;2022-07-21T02:27:21;21.40;99.90
39033;DHT22;24794;51.982;5.878;2022-07-21T02:28:22;21.40;99.90
39033;DHT22;24794;51.982;5.878;2022-07-21T02:29:22;21.40;99.90
39033;DHT22;24794;51.982;5.878;2022-07-21T02:30:23;21.40;99.90
39033;DHT22;24794;51.982;5.878;2022-07-21T02:31:24;21.40;99.90
39033;DHT22;24794;51.982;5.878;2022-07-21T02:32:24;21.40;99.90
39033;DHT22;24794;51.982;5.878;2022-07-21T02:33:25;21.40;99.90
39033;DHT22;24794;51.982;5.878;2022-07-21T02:34:25;21.40;99.90
39033;DHT22;24794;51.982;5.878;2022-07-21T02:35:26;21.40;99.90
39033;DHT22;24794;51.982;5.878;2022-07-21T02:36:26;21.30;99.90
39033;DHT22;24794;51.982;5.878;2022-07-21T02:37:27;21.30;99.90
39033;DHT22;24794;51.982;5.878;2022-07-21T02:38:28;21.30;99.90
39033;DHT22;24794;51.982;5.878;2022-07-21T02:39:29;21.30;99.90
39033;DHT22;24794;51.982;5.878;2022-07-21T02:40:29;21.30;99.90
39033;DHT22;24794;51.982;5.878;2022-07-21T02:41:30;21.30;99.90
39033;DHT22;24794;51.982;5.878;2022-07-21T02:42:31;21.30;99.90
39033;DHT22;24794;51.982;5.878;2022-07-21T02:43:31;21.30;99.90
39033;DHT22;24794;51.982;5.878;2022-07-21T02:44:32;21.20;99.90
39033;DHT22;24794;51.982;5.878;2022-07-21T02:45:33;21.30;99.90
39033;DHT22;24794;51.982;5.878;2022-07-21T02:46:34;21.30;99.90
39033;DHT22;24794;51.982;5.878;2022-07-21T02:47:48;21.30;99.90
39033;DHT22;24794;51.982;5.878;2022-07-21T02:48:48;21.30;99.90
39033;DHT22;24794;51.982;5.878;2022-07-21T02:49:49;21.30;99.90
39033;DHT22;24794;51.982;5.878;2022-07-21T02:50:50;21.30;99.90
39033;DHT22;24794;51.982;5.878;2022-07-21T02:51:50;21.40;99.90
39033;DHT22;24794;51.982;5.878;2022-07-21T02:52:57;21.40;99.90
39033;DHT22;24794;51.982;5.878;2022-07-21T02:53:58;21.40;99.90
39033;DHT22;24794;51.982;5.878;2022-07-21T02:54:58;21.50;99.90
39033;DHT22;24794;51.982;5.878;2022-07-21T02:55:59;21.60;99.90
39033;DHT22;24794;51.982;5.878;2022-07-21T02:56:59;21.60;99.90
39033;DHT22;24794;51.982;5.878;2022-07-21T02:59:11;21.70;99.90
39033;DHT22;24794;51.982;5.878;2022-07-21T03:00:12;21.70;99.90
39033;DHT22;24794;51.982;5.878;2022-07-21T03:01:13;21.70;99.90
39033;DHT22;24794;51.982;5.878;2022-07-21T03:02:14;21.70;99.90
39033;DHT22;24794;51.982;5.878;2022-07-21T03:03:15;21.80;99.90
39033;DHT22;24794;51.982;5.878;2022-07-21T03:04:16;21.80;99.90
39033;DHT22;24794;51.982;5.878;2022-07-21T03:05:16;21.80;99.90
39033;DHT22;24794;51.982;5.878;2022-07-21T03:06:17;21.80;99.90
39033;DHT22;24794;51.982;5.878;2022-07-21T03:07:18;21.80;99.90
39033;DHT22;24794;51.982;5.878;2022-07-21T03:08:19;21.80;99.90
39033;DHT22;24794;51.982;5.878;2022-07-21T03:09:20;21.80;99.90
39033;DHT22;24794;51.982;5.878;2022-07-21T03:10:20;21.80;99.90
39033;DHT22;24794;51.982;5.878;2022-07-21T03:11:21;21.80;99.90
39033;DHT22;24794;51.982;5.878;2022-07-21T03:12:22;21.90;99.90
39033;DHT22;24794;51.982;5.878;2022-07-21T03:13:23;21.90;99.90
39033;DHT22;24794;51.982;5.878;2022-07-21T03:14:23;21.80;99.90
39033;DHT22;24794;51.982;5.878;2022-07-21T03:15:24;21.80;99.90
39033;DHT22;24794;51.982;5.878;2022-07-21T03:16:26;21.80;99.90
39033;DHT22;24794;51.982;5.878;2022-07-21T03:17:27;21.80;99.90
39033;DHT22;24794;51.982;5.878;2022-07-21T03:18:28;21.70;99.90
39033;DHT22;24794;51.982;5.878;2022-07-21T03:19:29;21.70;99.90
39033;DHT22;24794;51.982;5.878;2022-07-21T03:20:33;21.70;99.90
39033;DHT22;24794;51.982;5.878;2022-07-21T03:21:33;21.70;99.90
39033;DHT22;24794;51.982;5.878;2022-07-21T03:22:34;21.70;99.90
39033;DHT22;24794;51.982;5.878;2022-07-21T03:23:34;21.70;99.90
39033;DHT22;24794;51.982;5.878;2022-07-21T03:24:35;21.60;99.90
39033;DHT22;24794;51.982;5.878;2022-07-21T03:25:35;21.70;99.90
39033;DHT22;24794;51.982;5.878;2022-07-21T03:26:36;21.70;99.90
39033;DHT22;24794;51.982;5.878;2022-07-21T03:27:38;21.70;99.90
39033;DHT22;24794;51.982;5.878;2022-07-21T03:28:40;21.70;99.90
39033;DHT22;24794;51.982;5.878;2022-07-21T03:29:40;21.70;99.90
39033;DHT22;24794;51.982;5.878;2022-07-21T03:30:41;21.70;99.90
39033;DHT22;24794;51.982;5.878;2022-07-21T03:31:41;21.70;99.90
39033;DHT22;24794;51.982;5.878;2022-07-21T03:32:42;21.70;99.90
39033;DHT22;24794;51.982;5.878;2022-07-21T03:33:43;21.70;99.90
39033;DHT22;24794;51.982;5.878;2022-07-21T03:34:44;21.70;99.90
39033;DHT22;24794;51.982;5.878;2022-07-21T03:35:45;21.70;99.90
39033;DHT22;24794;51.982;5.878;2022-07-21T03:36:46;21.70;99.90
39033;DHT22;24794;51.982;5.878;2022-07-21T03:37:52;21.70;99.90
39033;DHT22;24794;51.982;5.878;2022-07-21T03:38:53;21.70;99.90
39033;DHT22;24794;51.982;5.878;2022-07-21T03:39:54;21.70;99.90
39033;DHT22;24794;51.982;5.878;2022-07-21T03:40:54;21.70;99.90
39033;DHT22;24794;51.982;5.878;2022-07-21T03:41:55;21.70;99.90
39033;DHT22;24794;51.982;5.878;2022-07-21T03:42:57;21.70;99.90
39033;DHT22;24794;51.982;5.878;2022-07-21T03:43:58;21.70;99.90
39033;DHT22;24794;51.982;5.878;2022-07-21T03:44:59;21.70;99.90
39033;DHT22;24794;51.982;5.878;2022-07-21T03:45:59;21.70;99.90
39033;DHT22;24794;51.982;5.878;2022-07-21T03:47:00;21.70;99.90
39033;DHT22;24794;51.982;5.878;2022-07-21T03:48:02;21.70;99.90
39033;DHT22;24794;51.982;5.878;2022-07-21T03:49:03;21.70;99.90
39033;DHT22;24794;51.982;5.878;2022-07-21T03:50:04;21.70;99.90
39033;DHT22;24794;51.982;5.878;2022-07-21T03:51:05;21.70;99.90
39033;DHT22;24794;51.982;5.878;2022-07-21T03:52:06;21.70;99.90
39033;DHT22;24794;51.982;5.878;2022-07-21T03:53:07;21.70;99.90
39033;DHT22;24794;51.982;5.878;2022-07-21T03:54:07;21.70;99.90
39033;DHT22;24794;51.982;5.878;2022-07-21T03:55:08;21.70;99.90
39033;DHT22;24794;51.982;5.878;2022-07-21T03:56:09;21.70;99.90
39033;DHT22;24794;51.982;5.878;2022-07-21T03:57:09;21.70;99.90
39033;DHT22;24794;51.982;5.878;2022-07-21T03:58:12;21.70;99.90
39033;DHT22;24794;51.982;5.878;2022-07-21T03:59:12;21.70;99.90
39033;DHT22;24794;51.982;5.878;2022-07-21T04:00:25;21.70;99.90
39033;DHT22;24794;51.982;5.878;2022-07-21T04:01:26;21.70;99.90
39033;DHT22;24794;51.982;5.878;2022-07-21T04:02:26;21.60;99.90
39033;DHT22;24794;51.982;5.878;2022-07-21T04:03:27;21.50;99.90
39033;DHT22;24794;51.982;5.878;2022-07-21T04:04:27;21.50;99.90
39033;DHT22;24794;51.982;5.878;2022-07-21T04:05:28;21.50;99.90
39033;DHT22;24794;51.982;5.878;2022-07-21T04:06:29;21.40;99.90
39033;DHT22;24794;51.982;5.878;2022-07-21T04:07:30;21.40;99.90
39033;DHT22;24794;51.982;5.878;2022-07-21T04:08:30;21.40;99.90
39033;DHT22;24794;51.982;5.878;2022-07-21T04:09:31;21.40;99.90
39033;DHT22;24794;51.982;5.878;2022-07-21T04:10:33;21.30;99.90
39033;DHT22;24794;51.982;5.878;2022-07-21T04:11:34;21.30;99.90
39033;DHT22;24794;51.982;5.878;2022-07-21T04:12:35;21.30;99.90
39033;DHT22;24794;51.982;5.878;2022-07-21T04:13:36;21.30;99.90
39033;DHT22;24794;51.982;5.878;2022-07-21T04:14:37;21.30;99.90
39033;DHT22;24794;51.982;5.878;2022-07-21T04:15:38;21.20;99.90
39033;DHT22;24794;51.982;5.878;2022-07-21T04:16:39;21.20;99.90
39033;DHT22;24794;51.982;5.878;2022-07-21T04:17:40;21.20;99.90
39033;DHT22;24794;51.982;5.878;2022-07-21T04:18:40;21.20;99.90
39033;DHT22;24794;51.982;5.878;2022-07-21T04:19:41;21.10;99.90
39033;DHT22;24794;51.982;5.878;2022-07-21T04:20:42;21.10;99.90
39033;DHT22;24794;51.982;5.878;2022-07-21T04:21:42;21.10;99.90
39033;DHT22;24794;51.982;5.878;2022-07-21T04:22:44;21.10;99.90
39033;DHT22;24794;51.982;5.878;2022-07-21T04:23:45;21.10;99.90
39033;DHT22;24794;51.982;5.878;2022-07-21T04:24:45;21.00;99.90
39033;DHT22;24794;51.982;5.878;2022-07-21T04:25:46;21.00;99.90
39033;DHT22;24794;51.982;5.878;2022-07-21T04:26:46;21.00;99.90
39033;DHT22;24794;51.982;5.878;2022-07-21T04:27:48;20.90;99.90
39033;DHT22;24794;51.982;5.878;2022-07-21T04:28:49;20.90;99.90
39033;DHT22;24794;51.982;5.878;2022-07-21T04:29:49;20.90;99.90
39033;DHT22;24794;51.982;5.878;2022-07-21T04:30:50;20.90;99.90
39033;DHT22;24794;51.982;5.878;2022-07-21T04:31:50;20.90;99.90
39033;DHT22;24794;51.982;5.878;2022-07-21T04:32:51;20.90;99.90
39033;DHT22;24794;51.982;5.878;2022-07-21T04:33:52;20.90;99.90
39033;DHT22;24794;51.982;5.878;2022-07-21T04:34:53;20.90;99.90
39033;DHT22;24794;51.982;5.878;2022-07-21T04:35:53;20.90;99.90
39033;DHT22;24794;51.982;5.878;2022-07-21T04:36:54;20.90;99.90
39033;DHT22;24794;51.982;5.878;2022-07-21T04:37:55;20.90;99.90
39033;DHT22;24794;51.982;5.878;2022-07-21T04:38:56;20.90;99.90
39033;DHT22;24794;51.982;5.878;2022-07-21T04:39:56;21.00;99.90
39033;DHT22;24794;51.982;5.878;2022-07-21T04:40:57;21.00;99.90
39033;DHT22;24794;51.982;5.878;2022-07-21T04:41:57;21.00;99.90
39033;DHT22;24794;51.982;5.878;2022-07-21T04:42:58;21.00;99.90
39033;DHT22;24794;51.982;5.878;2022-07-21T04:43:59;20.90;99.90
39033;DHT22;24794;51.982;5.878;2022-07-21T04:45:00;20.90;99.90
39033;DHT22;24794;51.982;5.878;2022-07-21T04:46:01;20.90;99.90
39033;DHT22;24794;51.982;5.878;2022-07-21T04:47:02;20.90;99.90
39033;DHT22;24794;51.982;5.878;2022-07-21T04:48:03;20.90;99.90
39033;DHT22;24794;51.982;5.878;2022-07-21T04:49:03;20.90;99.90
39033;DHT22;24794;51.982;5.878;2022-07-21T04:50:04;20.90;99.90
39033;DHT22;24794;51.982;5.878;2022-07-21T04:51:05;20.80;99.90
39033;DHT22;24794;51.982;5.878;2022-07-21T04:52:06;20.90;99.90
39033;DHT22;24794;51.982;5.878;2022-07-21T04:53:06;20.80;99.90
39033;DHT22;24794;51.982;5.878;2022-07-21T04:54:08;20.80;99.90
39033;DHT22;24794;51.982;5.878;2022-07-21T04:55:10;20.80;99.90
39033;DHT22;24794;51.982;5.878;2022-07-21T04:56:10;20.80;99.90
39033;DHT22;24794;51.982;5.878;2022-07-21T04:57:11;20.70;99.90
39033;DHT22;24794;51.982;5.878;2022-07-21T04:58:11;20.70;99.90
39033;DHT22;24794;51.982;5.878;2022-07-21T04:59:12;20.60;99.90
39033;DHT22;24794;51.982;5.878;2022-07-21T05:00:15;20.60;99.90
39033;DHT22;24794;51.982;5.878;2022-07-21T05:01:16;20.60;99.90
39033;DHT22;24794;51.982;5.878;2022-07-21T05:02:18;20.50;99.90
39033;DHT22;24794;51.982;5.878;2022-07-21T05:03:19;20.50;99.90
39033;DHT22;24794;51.982;5.878;2022-07-21T05:04:19;20.50;99.90
39033;DHT22;24794;51.982;5.878;2022-07-21T05:05:20;20.40;99.90
39033;DHT22;24794;51.982;5.878;2022-07-21T05:06:20;20.40;99.90
39033;DHT22;24794;51.982;5.878;2022-07-21T05:07:21;20.40;99.90
39033;DHT22;24794;51.982;5.878;2022-07-21T05:08:22;20.40;99.90
39033;DHT22;24794;51.982;5.878;2022-07-21T05:09:23;20.40;99.90
39033;DHT22;24794;51.982;5.878;2022-07-21T05:10:23;20.40;99.90
39033;DHT22;24794;51.982;5.878;2022-07-21T05:11:24;20.40;99.90
39033;DHT22;24794;51.982;5.878;2022-07-21T05:12:25;20.50;99.90
39033;DHT22;24794;51.982;5.878;2022-07-21T05:13:26;20.50;99.90
39033;DHT22;24794;51.982;5.878;2022-07-21T05:14:27;20.50;99.90
39033;DHT22;24794;51.982;5.878;2022-07-21T05:15:27;20.50;99.90
39033;DHT22;24794;51.982;5.878;2022-07-21T05:16:28;20.50;99.90
39033;DHT22;24794;51.982;5.878;2022-07-21T05:17:29;20.50;99.90
39033;DHT22;24794;51.982;5.878;2022-07-21T05:18:30;20.60;99.90
39033;DHT22;24794;51.982;5.878;2022-07-21T05:19:30;20.60;99.90
39033;DHT22;24794;51.982;5.878;2022-07-21T05:20:31;20.60;99.90
39033;DHT22;24794;51.982;5.878;2022-07-21T05:21:31;20.60;99.90
39033;DHT22;24794;51.982;5.878;2022-07-21T05:22:32;20.70;99.90
39033;DHT22;24794;51.982;5.878;2022-07-21T05:23:33;20.70;99.90
39033;DHT22;24794;51.982;5.878;2022-07-21T05:24:34;20.70;99.90
39033;DHT22;24794;51.982;5.878;2022-07-21T05:25:34;20.70;99.90
39033;DHT22;24794;51.982;5.878;2022-07-21T05:26:36;20.70;99.90
39033;DHT22;24794;51.982;5.878;2022-07-21T05:27:37;20.80;99.90
39033;DHT22;24794;51.982;5.878;2022-07-21T05:28:37;20.70;99.90
39033;DHT22;24794;51.982;5.878;2022-07-21T05:29:38;20.70;99.90
39033;DHT22;24794;51.982;5.878;2022-07-21T05:30:39;20.70;99.90
39033;DHT22;24794;51.982;5.878;2022-07-21T05:31:39;20.80;99.90
39033;DHT22;24794;51.982;5.878;2022-07-21T05:32:40;20.80;99.90
39033;DHT22;24794;51.982;5.878;2022-07-21T05:33:41;20.80;99.90
39033;DHT22;24794;51.982;5.878;2022-07-21T05:34:41;20.80;99.90
39033;DHT22;24794;51.982;5.878;2022-07-21T05:35:42;20.80;99.90
39033;DHT22;24794;51.982;5.878;2022-07-21T05:36:43;20.80;99.90
39033;DHT22;24794;51.982;5.878;2022-07-21T05:37:44;20.80;99.90
39033;DHT22;24794;51.982;5.878;2022-07-21T05:38:48;20.80;99.90
39033;DHT22;24794;51.982;5.878;2022-07-21T05:39:48;20.80;99.90
39033;DHT22;24794;51.982;5.878;2022-07-21T05:40:49;20.80;99.90
39033;DHT22;24794;51.982;5.878;2022-07-21T05:41:50;20.80;99.90
39033;DHT22;24794;51.982;5.878;2022-07-21T05:42:50;20.80;99.90
39033;DHT22;24794;51.982;5.878;2022-07-21T05:43:51;20.80;99.90
39033;DHT22;24794;51.982;5.878;2022-07-21T05:44:51;20.80;99.90
39033;DHT22;24794;51.982;5.878;2022-07-21T05:45:52;20.80;99.90
39033;DHT22;24794;51.982;5.878;2022-07-21T05:46:53;20.70;99.90
39033;DHT22;24794;51.982;5.878;2022-07-21T05:47:53;20.70;99.90
39033;DHT22;24794;51.982;5.878;2022-07-21T05:48:54;20.60;99.90
39033;DHT22;24794;51.982;5.878;2022-07-21T05:49:55;20.60;99.90
39033;DHT22;24794;51.982;5.878;2022-07-21T05:50:56;20.60;99.90
39033;DHT22;24794;51.982;5.878;2022-07-21T05:51:56;20.50;99.90
39033;DHT22;24794;51.982;5.878;2022-07-21T05:52:57;20.50;99.90
39033;DHT22;24794;51.982;5.878;2022-07-21T05:53:57;20.40;99.90
39033;DHT22;24794;51.982;5.878;2022-07-21T05:54:58;20.40;99.90
39033;DHT22;24794;51.982;5.878;2022-07-21T05:55:59;20.40;99.90
39033;DHT22;24794;51.982;5.878;2022-07-21T05:56:59;20.30;99.90
39033;DHT22;24794;51.982;5.878;2022-07-21T05:58:00;20.40;99.90
39033;DHT22;24794;51.982;5.878;2022-07-21T05:59:00;20.40;99.90
39033;DHT22;24794;51.982;5.878;2022-07-21T06:00:01;20.30;99.90
39033;DHT22;24794;51.982;5.878;2022-07-21T06:01:02;20.30;99.90
39033;DHT22;24794;51.982;5.878;2022-07-21T06:02:09;20.30;99.90
39033;DHT22;24794;51.982;5.878;2022-07-21T06:03:09;20.30;99.90
39033;DHT22;24794;51.982;5.878;2022-07-21T06:04:10;20.30;99.90
39033;DHT22;24794;51.982;5.878;2022-07-21T06:05:12;20.30;99.90
39033;DHT22;24794;51.982;5.878;2022-07-21T06:06:13;20.30;99.90
39033;DHT22;24794;51.982;5.878;2022-07-21T06:07:16;20.30;99.90
39033;DHT22;24794;51.982;5.878;2022-07-21T06:08:16;20.30;99.90
39033;DHT22;24794;51.982;5.878;2022-07-21T06:09:17;20.30;99.90
39033;DHT22;24794;51.982;5.878;2022-07-21T06:10:18;20.30;99.90
39033;DHT22;24794;51.982;5.878;2022-07-21T06:11:19;20.30;99.90
39033;DHT22;24794;51.982;5.878;2022-07-21T06:12:20;20.30;99.90
39033;DHT22;24794;51.982;5.878;2022-07-21T06:13:20;20.20;99.90
39033;DHT22;24794;51.982;5.878;2022-07-21T06:14:21;20.20;99.90
39033;DHT22;24794;51.982;5.878;2022-07-21T06:15:22;20.20;99.90
39033;DHT22;24794;51.982;5.878;2022-07-21T06:16:23;20.20;99.90
39033;DHT22;24794;51.982;5.878;2022-07-21T06:17:23;20.20;99.90
39033;DHT22;24794;51.982;5.878;2022-07-21T06:18:24;20.20;99.90
39033;DHT22;24794;51.982;5.878;2022-07-21T06:19:24;20.20;99.90
39033;DHT22;24794;51.982;5.878;2022-07-21T06:20:25;20.20;99.90
39033;DHT22;24794;51.982;5.878;2022-07-21T06:21:26;20.10;99.90
39033;DHT22;24794;51.982;5.878;2022-07-21T06:22:26;20.10;99.90
39033;DHT22;24794;51.982;5.878;2022-07-21T06:23:27;20.10;99.90
39033;DHT22;24794;51.982;5.878;2022-07-21T06:24:28;20.10;99.90
39033;DHT22;24794;51.982;5.878;2022-07-21T06:25:29;20.10;99.90
39033;DHT22;24794;51.982;5.878;2022-07-21T06:26:29;20.10;99.90
39033;DHT22;24794;51.982;5.878;2022-07-21T06:27:30;20.00;99.90